Adams Lake, Indiana
Current Conditions -  °F | °C
As of 8:55 AM on Monday 24 Nov 2014 (Local Time) from KANQ Reporting Station
Overcast Overcast  
Wind Chill: 54°   Ceiling: 1400
Heat Index: 54°   Visibility: 10mi
Dew Point: 45°   Wind: 15mph
Humidity: 72%   Direction: 210°SSW
Pressure: 29.1"   Gusts: NA
Location:  41.5677°N, 85.3125°W
Report Text: KANQ 241355Z AUTO 21013KT 10SM OVC014 12/07 A2910 RMK
Loading
Personal Weather Stations






























Interactive Weather Map New forecast layout! Learn more

10-Day Weather Forecast

Advertisements
Track Severe Weather on mobile